CCA3695 ZSAM-ZGGG
Flight info
| Callsign | CCA3695 |
|---|---|
| Flight time | N/A |
| Altitude | 321 |
| Route | NUSPA W597 IKATA A470 BEBEM R200 GUBLO W22 IDUMA |
| Aircraft | A339/H-AIRCHINA/CCA3695 |
Departure
| Time | N/A |
|---|---|
| Airport | Xiamen Gaoqi International Airport (ZSAM) |
Arrival
| Time | 2026-04-27 04:56 |
|---|---|
| Airport | Guangzhou Baiyun International Airport (ZGGG) |
| Time | Latitude | Longitude | Altitude | Speed | Heading |
|---|---|---|---|---|---|
| 2026-04-27 04:14 | 22.89792 | 115.85601 | 31984 ft | 433 kts | 264° |
| 2026-04-27 04:14 | 22.89465 | 115.82319 | 31984 ft | 433 kts | 264° |
| 2026-04-27 04:15 | 22.88815 | 115.75826 | 31979 ft | 433 kts | 264° |
| 2026-04-27 04:15 | 22.88276 | 115.70438 | 31978 ft | 433 kts | 264° |
| 2026-04-27 04:16 | 22.87622 | 115.63957 | 31983 ft | 431 kts | 264° |
| 2026-04-27 04:16 | 22.86968 | 115.57515 | 31988 ft | 432 kts | 264° |
| 2026-04-27 04:17 | 22.86196 | 115.49931 | 31995 ft | 432 kts | 264° |
| 2026-04-27 04:17 | 22.85534 | 115.43467 | 31994 ft | 433 kts | 264° |
| 2026-04-27 04:18 | 22.84979 | 115.38066 | 31993 ft | 433 kts | 264° |
| 2026-04-27 04:18 | 22.84201 | 115.30532 | 31982 ft | 433 kts | 264° |
| 2026-04-27 04:19 | 22.83533 | 115.24068 | 31973 ft | 433 kts | 264° |
| 2026-04-27 04:19 | 22.82859 | 115.17596 | 31970 ft | 433 kts | 264° |
| 2026-04-27 04:20 | 22.82299 | 115.12228 | 31975 ft | 433 kts | 264° |
| 2026-04-27 04:20 | 22.81508 | 115.04690 | 31973 ft | 432 kts | 264° |
| 2026-04-27 04:21 | 22.80938 | 114.99287 | 31972 ft | 432 kts | 264° |
| 2026-04-27 04:21 | 22.80141 | 114.91735 | 31975 ft | 434 kts | 264° |
| 2026-04-27 04:22 | 22.79452 | 114.85237 | 31969 ft | 438 kts | 264° |
| 2026-04-27 04:22 | 22.78754 | 114.78693 | 31963 ft | 439 kts | 264° |
| 2026-04-27 04:23 | 22.78174 | 114.73206 | 31960 ft | 439 kts | 264° |
| 2026-04-27 04:23 | 22.77510 | 114.66672 | 31954 ft | 438 kts | 264° |
| 2026-04-27 04:24 | 22.76848 | 114.60129 | 31950 ft | 439 kts | 264° |
| 2026-04-27 04:24 | 22.76176 | 114.53580 | 31948 ft | 438 kts | 264° |
| 2026-04-27 04:25 | 22.75505 | 114.47034 | 31948 ft | 438 kts | 264° |
| 2026-04-27 04:25 | 22.74834 | 114.40453 | 31945 ft | 439 kts | 264° |
| 2026-04-27 04:26 | 22.74160 | 114.33890 | 31944 ft | 439 kts | 264° |
| 2026-04-27 04:26 | 22.73486 | 114.27343 | 31943 ft | 439 kts | 264° |
| 2026-04-27 04:27 | 22.72803 | 114.20753 | 31942 ft | 439 kts | 264° |
| 2026-04-27 04:27 | 22.72007 | 114.13110 | 31938 ft | 440 kts | 264° |
| 2026-04-27 04:28 | 22.72583 | 114.06589 | 31931 ft | 442 kts | 291° |
| 2026-04-27 04:28 | 22.74132 | 114.03739 | 31940 ft | 448 kts | 306° |
| 2026-04-27 04:28 | 22.76422 | 114.01405 | 31939 ft | 457 kts | 321° |
| 2026-04-27 04:29 | 22.81247 | 113.98943 | 31949 ft | 464 kts | 333° |
| 2026-04-27 04:29 | 22.87252 | 113.96319 | 31943 ft | 464 kts | 336° |
| 2026-04-27 04:30 | 22.93626 | 113.94632 | 31933 ft | 472 kts | 346° |
| 2026-04-27 04:30 | 23.00149 | 113.93707 | 31927 ft | 474 kts | 348° |
| 2026-04-27 04:31 | 23.06702 | 113.92832 | 31924 ft | 474 kts | 348° |
| 2026-04-27 04:31 | 23.09980 | 113.92384 | 31741 ft | 475 kts | 348° |
| 2026-04-27 04:31 | 23.13278 | 113.91932 | 31249 ft | 472 kts | 348° |
| 2026-04-27 04:32 | 23.16485 | 113.91280 | 30232 ft | 466 kts | 335° |
| 2026-04-27 04:32 | 23.19282 | 113.89612 | 29161 ft | 447 kts | 315° |
| 2026-04-27 04:32 | 23.21215 | 113.87135 | 28175 ft | 432 kts | 296° |
| 2026-04-27 04:32 | 23.22255 | 113.83044 | 26665 ft | 422 kts | 270° |
| 2026-04-27 04:33 | 23.22198 | 113.80938 | 25931 ft | 419 kts | 267° |
| 2026-04-27 04:33 | 23.22030 | 113.76775 | 24442 ft | 416 kts | 268° |
| 2026-04-27 04:33 | 23.22007 | 113.74665 | 23681 ft | 415 kts | 269° |
| 2026-04-27 04:33 | 23.22049 | 113.71590 | 22564 ft | 412 kts | 270° |
| 2026-04-27 04:34 | 23.22178 | 113.67468 | 21136 ft | 409 kts | 271° |
| 2026-04-27 04:34 | 23.22256 | 113.65452 | 20432 ft | 407 kts | 272° |
| 2026-04-27 04:34 | 23.22705 | 113.62425 | 19503 ft | 403 kts | 286° |
| 2026-04-27 04:34 | 23.23876 | 113.59748 | 18886 ft | 394 kts | 302° |
| 2026-04-27 04:35 | 23.25703 | 113.57569 | 18267 ft | 388 kts | 319° |
| 2026-04-27 04:35 | 23.28022 | 113.56136 | 17648 ft | 385 kts | 338° |
| 2026-04-27 04:35 | 23.30639 | 113.55585 | 17024 ft | 381 kts | 355° |
| 2026-04-27 04:35 | 23.33300 | 113.55570 | 16169 ft | 382 kts | 359° |
| 2026-04-27 04:36 | 23.35940 | 113.55657 | 15166 ft | 385 kts | 0° |
| 2026-04-27 04:36 | 23.38625 | 113.55753 | 14154 ft | 387 kts | 0° |
| 2026-04-27 04:36 | 23.41319 | 113.55820 | 13139 ft | 388 kts | 356° |
| 2026-04-27 04:36 | 23.43912 | 113.55225 | 12107 ft | 383 kts | 332° |
| 2026-04-27 04:37 | 23.46001 | 113.53560 | 11105 ft | 376 kts | 307° |
| 2026-04-27 04:37 | 23.47485 | 113.50218 | 9765 ft | 366 kts | 279° |
| 2026-04-27 04:37 | 23.47627 | 113.47493 | 8760 ft | 361 kts | 262° |
| 2026-04-27 04:37 | 23.47009 | 113.44921 | 7901 ft | 352 kts | 244° |
| 2026-04-27 04:38 | 23.46226 | 113.43410 | 7479 ft | 342 kts | 232° |
| 2026-04-27 04:38 | 23.44605 | 113.41589 | 7079 ft | 322 kts | 216° |
| 2026-04-27 04:38 | 23.42707 | 113.40456 | 7044 ft | 308 kts | 200° |
| 2026-04-27 04:38 | 23.39958 | 113.39891 | 6992 ft | 293 kts | 185° |
| 2026-04-27 04:39 | 23.37941 | 113.39744 | 6978 ft | 282 kts | 184° |
| 2026-04-27 04:39 | 23.36033 | 113.39616 | 6969 ft | 271 kts | 184° |
| 2026-04-27 04:39 | 23.34788 | 113.39532 | 6968 ft | 263 kts | 184° |
| 2026-04-27 04:39 | 23.32396 | 113.39362 | 6962 ft | 249 kts | 185° |
| 2026-04-27 04:40 | 23.31232 | 113.39277 | 6968 ft | 251 kts | 185° |
| 2026-04-27 04:40 | 23.28891 | 113.39104 | 6971 ft | 252 kts | 185° |
| 2026-04-27 04:40 | 23.27729 | 113.39017 | 6970 ft | 252 kts | 185° |
| 2026-04-27 04:40 | 23.25987 | 113.38889 | 6969 ft | 251 kts | 185° |
| 2026-04-27 04:41 | 23.24241 | 113.38715 | 6968 ft | 252 kts | 188° |
| 2026-04-27 04:41 | 23.22504 | 113.38428 | 6963 ft | 251 kts | 191° |
| 2026-04-27 04:41 | 23.20773 | 113.38018 | 6960 ft | 251 kts | 194° |
| 2026-04-27 04:41 | 23.18525 | 113.37412 | 6957 ft | 251 kts | 194° |
| 2026-04-27 04:42 | 23.17381 | 113.37103 | 6956 ft | 251 kts | 194° |
| 2026-04-27 04:42 | 23.15682 | 113.36644 | 6955 ft | 250 kts | 194° |
| 2026-04-27 04:42 | 23.13983 | 113.36186 | 6952 ft | 250 kts | 194° |
| 2026-04-27 04:42 | 23.12285 | 113.35726 | 6953 ft | 251 kts | 194° |
| 2026-04-27 04:43 | 23.10022 | 113.35115 | 6948 ft | 250 kts | 194° |
| 2026-04-27 04:43 | 23.08326 | 113.34657 | 6946 ft | 251 kts | 194° |
| 2026-04-27 04:43 | 23.06621 | 113.34197 | 6945 ft | 251 kts | 194° |
| 2026-04-27 04:43 | 23.05497 | 113.33894 | 6948 ft | 251 kts | 194° |
| 2026-04-27 04:44 | 23.03780 | 113.33431 | 6948 ft | 252 kts | 194° |
| 2026-04-27 04:44 | 23.02072 | 113.32970 | 6940 ft | 252 kts | 194° |
| 2026-04-27 04:44 | 23.00367 | 113.32510 | 6943 ft | 252 kts | 194° |
| 2026-04-27 04:44 | 22.98658 | 113.32050 | 6943 ft | 251 kts | 194° |
| 2026-04-27 04:45 | 22.96969 | 113.31596 | 6944 ft | 251 kts | 194° |
| 2026-04-27 04:45 | 22.94699 | 113.30985 | 6949 ft | 251 kts | 194° |
| 2026-04-27 04:45 | 22.93564 | 113.30679 | 6951 ft | 251 kts | 194° |
| 2026-04-27 04:45 | 22.91599 | 113.29427 | 6926 ft | 253 kts | 235° |
| 2026-04-27 04:46 | 22.91047 | 113.27618 | 6936 ft | 259 kts | 269° |
| 2026-04-27 04:46 | 22.91394 | 113.25699 | 6961 ft | 263 kts | 283° |
| 2026-04-27 04:46 | 22.91731 | 113.24414 | 6955 ft | 263 kts | 282° |
| 2026-04-27 04:46 | 22.92359 | 113.21861 | 6945 ft | 262 kts | 282° |
| 2026-04-27 04:47 | 22.92663 | 113.20599 | 6945 ft | 262 kts | 282° |
| 2026-04-27 04:47 | 22.93285 | 113.18029 | 6947 ft | 263 kts | 282° |
| 2026-04-27 04:47 | 22.93915 | 113.16177 | 6932 ft | 267 kts | 304° |
| 2026-04-27 04:47 | 22.94798 | 113.15221 | 6933 ft | 271 kts | 327° |
| 2026-04-27 04:48 | 22.96582 | 113.14589 | 6915 ft | 274 kts | 359° |
| 2026-04-27 04:48 | 22.98429 | 113.15082 | 6624 ft | 276 kts | 34° |
| 2026-04-27 04:48 | 22.99804 | 113.16511 | 6260 ft | 272 kts | 53° |
| 2026-04-27 04:48 | 23.00950 | 113.18147 | 5902 ft | 269 kts | 55° |
| 2026-04-27 04:49 | 23.02448 | 113.20289 | 5428 ft | 265 kts | 53° |
| 2026-04-27 04:49 | 23.03285 | 113.21268 | 5169 ft | 266 kts | 37° |
| 2026-04-27 04:49 | 23.05526 | 113.22199 | 4946 ft | 253 kts | 12° |
| 2026-04-27 04:49 | 23.06668 | 113.22433 | 4893 ft | 244 kts | 11° |
| 2026-04-27 04:50 | 23.08867 | 113.22883 | 4714 ft | 237 kts | 12° |
| 2026-04-27 04:50 | 23.10446 | 113.23253 | 4643 ft | 227 kts | 14° |
| 2026-04-27 04:50 | 23.11951 | 113.23634 | 4633 ft | 213 kts | 14° |
| 2026-04-27 04:50 | 23.13353 | 113.23997 | 4592 ft | 205 kts | 15° |
| 2026-04-27 04:51 | 23.14294 | 113.24245 | 4456 ft | 206 kts | 15° |
| 2026-04-27 04:51 | 23.16153 | 113.24741 | 4110 ft | 206 kts | 15° |
| 2026-04-27 04:51 | 23.17086 | 113.24993 | 3935 ft | 207 kts | 15° |
| 2026-04-27 04:51 | 23.18489 | 113.25372 | 3676 ft | 205 kts | 16° |
| 2026-04-27 04:52 | 23.19881 | 113.25750 | 3409 ft | 205 kts | 15° |
| 2026-04-27 04:52 | 23.21700 | 113.26243 | 3052 ft | 200 kts | 16° |
| 2026-04-27 04:52 | 23.22589 | 113.26483 | 2878 ft | 196 kts | 16° |
| 2026-04-27 04:52 | 23.23914 | 113.26842 | 2623 ft | 190 kts | 16° |
| 2026-04-27 04:53 | 23.25178 | 113.27183 | 2383 ft | 184 kts | 17° |
| 2026-04-27 04:53 | 23.26415 | 113.27518 | 2153 ft | 178 kts | 17° |
| 2026-04-27 04:53 | 23.27579 | 113.27834 | 1941 ft | 170 kts | 16° |
| 2026-04-27 04:53 | 23.29110 | 113.28247 | 1672 ft | 168 kts | 18° |
| 2026-04-27 04:54 | 23.29868 | 113.28454 | 1535 ft | 168 kts | 17° |
| 2026-04-27 04:54 | 23.30990 | 113.28756 | 1334 ft | 166 kts | 17° |
| 2026-04-27 04:54 | 23.32111 | 113.29059 | 1119 ft | 165 kts | 16° |
| 2026-04-27 04:54 | 23.33230 | 113.29362 | 906 ft | 163 kts | 16° |
| 2026-04-27 04:55 | 23.34691 | 113.29756 | 627 ft | 162 kts | 16° |
| 2026-04-27 04:55 | 23.35426 | 113.29954 | 485 ft | 160 kts | 16° |
| 2026-04-27 04:55 | 23.36511 | 113.30248 | 285 ft | 160 kts | 15° |
| 2026-04-27 04:55 | 23.37944 | 113.30634 | 50 ft | 153 kts | 15° |
| 2026-04-27 04:56 | 23.38568 | 113.30805 | 48 ft | 124 kts | 15° |
| 2026-04-27 04:56 | 23.39231 | 113.30984 | 52 ft | 72 kts | 13° |
| 2026-04-27 04:56 | 23.39571 | 113.31060 | 52 ft | 10 kts | 1° |
| 2026-04-27 04:56 | 23.39651 | 113.31053 | 52 ft | 12 kts | 350° |
| 2026-04-27 04:57 | 23.39740 | 113.31034 | 52 ft | 14 kts | 347° |
| 2026-04-27 04:57 | 23.39806 | 113.31016 | 52 ft | 15 kts | 345° |
| 2026-04-27 04:57 | 23.39912 | 113.30987 | 54 ft | 15 kts | 346° |
| 2026-04-27 04:57 | 23.39992 | 113.30920 | 55 ft | 15 kts | 291° |
| 2026-04-27 04:58 | 23.40001 | 113.30766 | 54 ft | 8 kts | 275° |
| 2026-04-27 04:58 | 23.40021 | 113.30730 | 54 ft | 6 kts | 308° |
| 2026-04-27 04:58 | 23.40047 | 113.30707 | 54 ft | 7 kts | 328° |
| 2026-04-27 04:58 | 23.40074 | 113.30691 | 54 ft | 0 kts | 332° |